Terminal Aerodrome Forecast
Issued by NWS Amarillo, TX

Home | Current Version | Previous Version | Text Only | Print | Product List | Glossary On
Versions: 1 2 3 4 5 6 7 8 9 10 11 12 13 14 15 16 17 18
577
FTUS44 KAMA 290522
TAFGUY
TAF
KGUY 290522Z 2906/3006 06018G28KT 6SM BR VCTS OVC008CB
      TEMPO 2906/2909 VRB45KT 1SM TSRA BR OVC006CB
     FM290900 07020KT 4SM -TSRA BR OVC008CB
     FM300000 36017KT 5SM -RA BR OVC012=

USA.gov is the U.S. government's official web portal to all federal, state and local government web resources and services.